createdAt,value
2022-09-24T00:01:26.394Z,10.51
2022-09-24T00:03:56.026Z,10.49
2022-09-24T00:06:23.742Z,10.51
2022-09-24T00:08:52.432Z,10.70
2022-09-24T00:11:21.843Z,10.71
2022-09-24T00:13:50.205Z,10.80
2022-09-24T00:16:18.887Z,11.04
2022-09-24T00:18:45.689Z,11.00
2022-09-24T00:21:24.504Z,11.13
2022-09-24T00:23:53.456Z,11.11
2022-09-24T00:26:39.712Z,11.04
2022-09-24T00:29:08.123Z,11.07
2022-09-24T00:31:35.779Z,11.08
2022-09-24T00:34:02.982Z,11.14
2022-09-24T00:36:30.024Z,11.25
2022-09-24T00:38:59.085Z,11.21
2022-09-24T00:41:28.984Z,11.47
2022-09-24T00:43:56.454Z,11.30
2022-09-24T00:46:43.217Z,11.35
2022-09-24T00:49:19.511Z,11.39
2022-09-24T00:51:50.339Z,11.41
2022-09-24T00:54:24.779Z,11.52
2022-09-24T00:56:53.950Z,11.47
2022-09-24T00:59:24.000Z,11.40
2022-09-24T01:01:54.013Z,11.41
2022-09-24T01:04:21.946Z,11.28
2022-09-24T01:06:50.144Z,11.09
2022-09-24T01:09:19.148Z,11.17
2022-09-24T01:11:58.312Z,11.25
2022-09-24T01:14:50.143Z,11.30
2022-09-24T01:17:46.313Z,11.39
2022-09-24T01:20:37.891Z,11.38
2022-09-24T01:23:32.361Z,11.41
2022-09-24T01:26:38.473Z,11.33
2022-09-24T01:29:33.165Z,11.51
2022-09-24T01:32:11.599Z,11.50
2022-09-24T01:34:43.712Z,11.54
2022-09-24T01:37:14.842Z,11.41
2022-09-24T01:39:45.404Z,11.34
2022-09-24T01:42:13.670Z,11.38
2022-09-24T01:44:44.353Z,11.39
2022-09-24T01:47:18.613Z,11.33
2022-09-24T01:49:46.078Z,11.28
2022-09-24T01:52:18.747Z,11.27
2022-09-24T01:54:52.043Z,11.28
2022-09-24T01:57:24.209Z,11.20
2022-09-24T02:00:12.082Z,11.22
2022-09-24T02:02:54.785Z,11.24
2022-09-24T02:05:38.966Z,11.25
2022-09-24T02:08:13.197Z,11.23
2022-09-24T02:10:57.803Z,11.23
2022-09-24T02:13:29.034Z,11.20
2022-09-24T02:16:00.159Z,11.25
2022-09-24T02:18:34.708Z,11.25
2022-09-24T02:21:06.282Z,11.25
2022-09-24T02:23:37.198Z,11.32
2022-09-24T02:26:05.579Z,11.25
2022-09-24T02:28:33.506Z,11.20
2022-09-24T02:31:12.415Z,11.20
2022-09-24T02:34:00.756Z,11.38
2022-09-24T02:36:29.207Z,11.31
2022-09-24T02:38:56.345Z,11.27
2022-09-24T02:41:25.054Z,11.24
2022-09-24T02:43:52.860Z,11.17
2022-09-24T02:46:20.230Z,11.17
2022-09-24T02:48:47.001Z,11.16
2022-09-24T02:51:13.838Z,11.19
2022-09-24T02:53:40.449Z,11.27
2022-09-24T02:56:08.953Z,11.16
2022-09-24T02:58:37.624Z,11.34
2022-09-24T03:01:05.341Z,11.27
2022-09-24T03:03:32.915Z,11.22
2022-09-24T03:05:59.869Z,11.14
2022-09-24T03:08:27.288Z,11.13
2022-09-24T03:10:56.248Z,11.17
2022-09-24T03:13:23.642Z,11.13
2022-09-24T03:15:50.642Z,11.25
2022-09-24T03:18:17.499Z,11.22
2022-09-24T03:20:44.431Z,11.20
2022-09-24T03:23:11.446Z,11.14
2022-09-24T03:25:38.759Z,11.13
2022-09-24T03:28:05.603Z,11.12
2022-09-24T03:30:50.715Z,11.20
2022-09-24T03:33:17.484Z,11.19
2022-09-24T03:35:44.278Z,11.27
2022-09-24T03:38:11.180Z,11.26
2022-09-24T03:40:37.934Z,11.23
2022-09-24T03:43:04.773Z,11.21
2022-09-24T03:45:31.701Z,11.17
2022-09-24T03:47:58.523Z,11.14
2022-09-24T03:50:25.796Z,11.11
2022-09-24T03:52:52.496Z,11.15
2022-09-24T03:55:19.460Z,11.17
2022-09-24T03:57:46.638Z,11.19
2022-09-24T04:00:13.944Z,11.19
2022-09-24T04:02:41.142Z,11.24
2022-09-24T04:05:08.330Z,11.36
2022-09-24T04:07:35.115Z,11.36
2022-09-24T04:10:01.980Z,11.42
2022-09-24T04:12:29.674Z,11.50
2022-09-24T04:14:56.415Z,11.38
2022-09-24T04:17:23.291Z,11.39
2022-09-24T04:19:54.068Z,11.33
2022-09-24T04:22:21.443Z,11.20
2022-09-24T04:24:48.183Z,11.16
2022-09-24T04:27:15.354Z,11.16
2022-09-24T04:29:42.013Z,11.13
2022-09-24T04:32:08.906Z,11.11
2022-09-24T04:34:35.818Z,11.14
2022-09-24T04:37:02.595Z,11.13
2022-09-24T04:39:29.393Z,11.13
2022-09-24T04:41:56.195Z,11.14
2022-09-24T04:44:23.686Z,11.07
2022-09-24T04:46:50.779Z,11.06
2022-09-24T04:49:17.564Z,11.10
2022-09-24T04:51:44.462Z,11.04
2022-09-24T04:54:11.337Z,11.05
2022-09-24T04:56:38.343Z,11.06
2022-09-24T04:59:05.146Z,11.09
2022-09-24T05:01:32.106Z,11.03
2022-09-24T05:03:59.104Z,11.00
2022-09-24T05:06:25.848Z,11.07
2022-09-24T05:08:52.927Z,11.06
2022-09-24T05:11:19.984Z,11.08
2022-09-24T05:13:46.737Z,11.07
2022-09-24T05:16:13.644Z,11.09
2022-09-24T05:18:42.576Z,11.06
2022-09-24T05:21:09.670Z,11.13
2022-09-24T05:23:36.492Z,11.06
2022-09-24T05:26:22.014Z,11.01
2022-09-24T05:28:48.924Z,11.01
2022-09-24T05:31:15.813Z,11.04
2022-09-24T05:33:42.840Z,11.00
2022-09-24T05:36:09.775Z,11.02
2022-09-24T05:38:38.838Z,11.07
2022-09-24T05:41:08.379Z,11.17
2022-09-24T05:43:35.183Z,11.37
2022-09-24T05:46:02.240Z,11.41
2022-09-24T05:48:29.217Z,11.47
2022-09-24T05:50:56.481Z,11.49
2022-09-24T05:53:23.901Z,11.47
2022-09-24T05:55:50.930Z,11.53
2022-09-24T05:58:18.252Z,11.58
2022-09-24T06:00:47.697Z,11.56
2022-09-24T06:03:16.759Z,11.58
2022-09-24T06:05:49.133Z,11.61
2022-09-24T06:08:17.483Z,11.66
2022-09-24T06:10:48.117Z,11.69
2022-09-24T06:13:18.546Z,12.05
2022-09-24T06:15:45.508Z,11.94
2022-09-24T06:18:12.678Z,11.90
2022-09-24T06:20:40.469Z,11.98
2022-09-24T06:23:07.909Z,12.05
2022-09-24T06:25:34.925Z,12.11
2022-09-24T06:28:04.048Z,12.19
2022-09-24T06:30:38.139Z,12.24
2022-09-24T06:33:07.847Z,12.30
2022-09-24T06:35:36.835Z,12.41
2022-09-24T06:38:04.935Z,12.46
2022-09-24T06:40:36.485Z,12.45
2022-09-24T06:43:14.345Z,12.54
2022-09-24T06:45:43.223Z,12.60
2022-09-24T06:48:12.337Z,12.71
2022-09-24T06:50:44.694Z,12.87
2022-09-24T06:53:12.287Z,12.96
2022-09-24T06:55:39.531Z,13.03
2022-09-24T06:58:12.475Z,13.04
2022-09-24T07:00:40.691Z,13.16
2022-09-24T07:03:08.239Z,13.24
2022-09-24T07:05:39.550Z,13.35
2022-09-24T07:08:09.549Z,13.56
2022-09-24T07:10:36.346Z,13.53
2022-09-24T07:13:03.332Z,13.47
2022-09-24T07:15:30.192Z,13.68
2022-09-24T07:17:57.320Z,13.67
2022-09-24T07:20:28.285Z,13.73
2022-09-24T07:22:56.060Z,13.80
2022-09-24T07:25:22.859Z,13.94
2022-09-24T07:27:49.693Z,14.01
2022-09-24T07:30:16.942Z,14.09
2022-09-24T07:32:43.900Z,14.13
2022-09-24T07:35:10.692Z,14.24
2022-09-24T07:37:37.453Z,14.16
2022-09-24T07:40:04.571Z,14.24
2022-09-24T07:42:31.412Z,14.14
2022-09-24T07:45:01.311Z,14.28
2022-09-24T07:47:28.067Z,14.18
2022-09-24T07:49:54.794Z,14.33
2022-09-24T07:52:22.189Z,14.40
2022-09-24T07:54:49.669Z,14.39
2022-09-24T07:57:16.391Z,14.35
2022-09-24T07:59:44.886Z,14.28
2022-09-24T08:02:17.088Z,14.54
2022-09-24T08:04:44.677Z,14.78
2022-09-24T08:07:12.900Z,14.92
2022-09-24T08:09:40.033Z,15.05
2022-09-24T08:12:07.588Z,15.18
2022-09-24T08:14:34.352Z,15.09
2022-09-24T08:17:01.938Z,15.14
2022-09-24T08:19:31.032Z,15.42
2022-09-24T08:21:58.513Z,15.64
2022-09-24T08:24:25.985Z,15.80
2022-09-24T08:26:52.765Z,15.96
2022-09-24T08:29:19.623Z,16.07
2022-09-24T08:31:46.413Z,16.02
2022-09-24T08:34:15.271Z,16.13
2022-09-24T08:36:43.281Z,16.18
2022-09-24T08:39:11.788Z,16.39
2022-09-24T08:41:50.605Z,16.41
2022-09-24T08:44:50.428Z,16.30
2022-09-24T08:47:43.402Z,16.03
2022-09-24T08:50:23.305Z,15.77
2022-09-24T08:52:59.722Z,15.57
2022-09-24T08:55:44.413Z,15.77
2022-09-24T08:58:29.079Z,15.70
2022-09-24T09:01:15.245Z,15.65
2022-09-24T09:04:03.702Z,15.69
2022-09-24T09:07:07.594Z,15.81
2022-09-24T09:09:46.629Z,15.96
2022-09-24T09:12:19.942Z,15.95
2022-09-24T09:14:56.138Z,15.83
2022-09-24T09:17:43.050Z,15.75
2022-09-24T09:20:35.313Z,15.84
2022-09-24T09:23:18.229Z,16.12
2022-09-24T09:25:53.481Z,16.31
2022-09-24T09:28:21.199Z,16.19
2022-09-24T09:30:54.277Z,15.83
2022-09-24T09:33:40.156Z,15.87
2022-09-24T09:36:26.134Z,15.82
2022-09-24T09:39:13.390Z,15.96
2022-09-24T09:42:04.734Z,16.09
2022-09-24T09:44:40.573Z,16.01
2022-09-24T09:47:37.884Z,16.31
2022-09-24T09:50:12.780Z,16.15
2022-09-24T09:52:40.320Z,16.06
2022-09-24T09:55:08.247Z,15.94
2022-09-24T09:57:36.870Z,16.07
2022-09-24T10:00:05.387Z,15.92
2022-09-24T10:02:35.468Z,15.91
2022-09-24T10:05:04.591Z,16.28
2022-09-24T10:07:32.930Z,16.15
2022-09-24T10:10:25.323Z,16.00
2022-09-24T10:16:17.466Z,16.24
2022-09-24T10:18:49.339Z,16.25
2022-09-24T10:21:35.201Z,16.54
2022-09-24T10:24:05.519Z,16.83
2022-09-24T10:26:44.697Z,16.49
2022-09-24T10:29:37.746Z,16.52
2022-09-24T10:32:07.908Z,16.30
2022-09-24T10:34:35.657Z,16.34
2022-09-24T10:37:13.708Z,16.25
2022-09-24T10:39:41.182Z,16.45
2022-09-24T10:42:26.131Z,16.50
2022-09-24T10:44:54.525Z,16.60
2022-09-24T10:47:44.797Z,16.81
2022-09-24T10:50:32.224Z,17.04
2022-09-24T10:53:13.877Z,16.96
2022-09-24T10:56:13.267Z,17.29
2022-09-24T10:59:08.264Z,17.55
2022-09-24T11:01:58.301Z,17.43
2022-09-24T11:04:44.823Z,17.56
2022-09-24T11:07:44.838Z,17.42
2022-09-24T11:10:42.330Z,17.56
2022-09-24T11:13:21.682Z,17.12
2022-09-24T11:15:53.598Z,17.15
2022-09-24T11:19:01.724Z,17.16
2022-09-24T11:22:11.570Z,17.34
2022-09-24T11:24:55.518Z,17.51
2022-09-24T11:27:28.521Z,17.53
2022-09-24T11:30:04.674Z,17.68
2022-09-24T11:32:57.981Z,17.49
2022-09-24T11:35:42.616Z,17.08
2022-09-24T11:38:10.650Z,16.95
2022-09-24T11:40:59.107Z,17.22
2022-09-24T11:43:48.783Z,17.30
2022-09-24T11:46:31.089Z,17.34
2022-09-24T11:49:12.302Z,17.43
2022-09-24T11:51:59.179Z,17.21
2022-09-24T11:54:56.843Z,17.47
2022-09-24T11:57:40.481Z,17.53
2022-09-24T12:00:32.411Z,17.84
2022-09-24T12:03:07.847Z,17.54
2022-09-24T12:05:44.525Z,17.55
2022-09-24T12:08:27.853Z,17.38
2022-09-24T12:11:06.926Z,17.40
2022-09-24T12:13:41.964Z,17.22
2022-09-24T12:16:13.682Z,17.22
2022-09-24T12:18:54.753Z,17.34
2022-09-24T12:21:33.299Z,17.29
2022-09-24T12:24:13.747Z,17.21
2022-09-24T12:26:42.883Z,17.09
2022-09-24T12:29:55.701Z,17.12
2022-09-24T12:32:53.065Z,16.84
2022-09-24T12:35:28.774Z,16.87
2022-09-24T12:38:04.976Z,17.01
2022-09-24T12:40:56.221Z,16.92
2022-09-24T12:43:31.179Z,16.86
2022-09-24T12:46:06.220Z,16.81
2022-09-24T12:48:37.486Z,16.90
2022-09-24T12:51:07.387Z,16.85
2022-09-24T12:53:40.687Z,16.81
2022-09-24T12:56:09.803Z,16.71
2022-09-24T12:58:38.716Z,16.86
2022-09-24T13:01:24.377Z,16.86
2022-09-24T13:04:16.595Z,16.75
2022-09-24T13:06:47.946Z,16.83
2022-09-24T13:09:26.766Z,16.75
2022-09-24T13:12:32.401Z,16.68
2022-09-24T13:15:06.731Z,16.44
2022-09-24T13:17:35.671Z,16.30
2022-09-24T13:20:08.443Z,16.28
2022-09-24T13:22:37.745Z,16.34
2022-09-24T13:25:07.937Z,16.32
2022-09-24T13:27:41.912Z,16.46
2022-09-24T13:30:09.647Z,16.30
2022-09-24T13:32:46.929Z,16.11
2022-09-24T13:35:24.393Z,16.19
2022-09-24T13:37:58.383Z,16.18
2022-09-24T13:40:29.076Z,16.35
2022-09-24T13:43:11.893Z,16.04
2022-09-24T13:45:43.871Z,16.14
2022-09-24T13:48:38.067Z,16.15
2022-09-24T13:51:11.915Z,16.15
2022-09-24T13:53:52.134Z,15.97
2022-09-24T13:56:24.095Z,15.88
2022-09-24T13:59:04.768Z,15.82
2022-09-24T14:01:38.927Z,15.75
2022-09-24T14:04:21.238Z,15.72
2022-09-24T14:06:54.751Z,15.67
2022-09-24T14:09:36.420Z,15.59
2022-09-24T14:12:22.112Z,15.63
2022-09-24T14:14:58.249Z,15.52
2022-09-24T14:17:26.419Z,15.61
2022-09-24T14:19:57.415Z,15.48
2022-09-24T14:22:32.414Z,15.46
2022-09-24T14:25:31.739Z,15.34
2022-09-24T14:28:01.263Z,15.39
2022-09-24T14:30:30.648Z,15.30
2022-09-24T14:33:07.373Z,15.37
2022-09-24T14:35:37.171Z,15.39
2022-09-24T14:38:24.649Z,15.21
2022-09-24T14:41:05.400Z,15.19
2022-09-24T14:43:41.856Z,15.14
2022-09-24T14:46:17.569Z,15.20
2022-09-24T14:48:44.973Z,15.22
2022-09-24T14:51:28.779Z,14.96
2022-09-24T14:54:06.504Z,14.82
2022-09-24T14:56:35.201Z,14.90
2022-09-24T14:59:02.162Z,14.93
2022-09-24T15:01:33.983Z,15.10
2022-09-24T15:04:08.296Z,14.96
2022-09-24T15:06:37.811Z,14.90
2022-09-24T15:09:16.042Z,14.90
2022-09-24T15:11:43.873Z,14.92
2022-09-24T15:14:16.639Z,14.79
2022-09-24T15:16:47.103Z,14.77
2022-09-24T15:19:27.673Z,14.64
2022-09-24T15:21:59.006Z,14.64
2022-09-24T15:24:26.083Z,14.62
2022-09-24T15:27:05.932Z,14.43
2022-09-24T15:29:33.755Z,14.34
2022-09-24T15:32:02.321Z,14.31
2022-09-24T15:34:31.628Z,14.11
2022-09-24T15:37:00.864Z,14.14
2022-09-24T15:39:29.888Z,14.12
2022-09-24T15:41:58.217Z,14.07
2022-09-24T15:44:33.617Z,14.09
2022-09-24T15:47:03.232Z,14.06
2022-09-24T15:49:32.573Z,14.09
2022-09-24T15:52:07.462Z,14.20
2022-09-24T15:54:35.556Z,14.23
2022-09-24T15:57:03.408Z,14.10
2022-09-24T15:59:31.228Z,14.27
2022-09-24T16:02:03.364Z,14.19
2022-09-24T16:04:31.306Z,14.35
2022-09-24T16:06:59.430Z,14.36
2022-09-24T16:09:27.586Z,14.33
2022-09-24T16:11:57.808Z,14.36
2022-09-24T16:14:29.974Z,14.21
2022-09-24T16:16:58.919Z,14.24
2022-09-24T16:19:27.658Z,14.28
2022-09-24T16:21:56.350Z,14.24
2022-09-24T16:24:23.231Z,14.20
2022-09-24T16:26:51.163Z,14.26
2022-09-24T16:29:19.953Z,14.30
2022-09-24T16:31:48.235Z,14.24
2022-09-24T16:34:16.693Z,14.22
2022-09-24T16:36:44.660Z,14.23
2022-09-24T16:39:17.461Z,14.11
2022-09-24T16:41:49.197Z,14.09
2022-09-24T16:44:23.074Z,14.06
2022-09-24T16:46:51.190Z,14.06
2022-09-24T16:49:19.741Z,14.01
2022-09-24T16:51:47.495Z,13.94
2022-09-24T16:54:17.927Z,13.95
2022-09-24T16:56:45.825Z,14.10
2022-09-24T16:59:13.842Z,13.98
2022-09-24T17:01:42.721Z,14.05
2022-09-24T17:04:12.741Z,13.93
2022-09-24T17:06:40.546Z,13.95
2022-09-24T17:09:28.462Z,14.03
2022-09-24T17:11:57.296Z,14.04
2022-09-24T17:14:27.092Z,14.02
2022-09-24T17:16:57.244Z,14.23
2022-09-24T17:19:24.611Z,14.18
2022-09-24T17:21:52.355Z,14.10
2022-09-24T17:24:21.968Z,13.99
2022-09-24T17:26:50.345Z,14.00
2022-09-24T17:29:22.455Z,13.99
2022-09-24T17:31:51.271Z,14.05
2022-09-24T17:34:19.109Z,13.95
2022-09-24T17:36:47.401Z,13.99
2022-09-24T17:39:15.167Z,13.93
2022-09-24T17:41:42.803Z,13.90
2022-09-24T17:44:13.288Z,13.97
2022-09-24T17:46:44.181Z,14.03
2022-09-24T17:49:12.326Z,14.04
2022-09-24T17:51:39.852Z,14.02
2022-09-24T17:54:09.824Z,14.13
2022-09-24T17:56:40.657Z,14.08
2022-09-24T17:59:13.635Z,14.05
2022-09-24T18:01:43.790Z,14.18
2022-09-24T18:04:20.590Z,14.20
2022-09-24T18:06:49.050Z,14.15
2022-09-24T18:09:18.335Z,14.09
2022-09-24T18:11:51.614Z,14.15
2022-09-24T18:14:21.538Z,13.96
2022-09-24T18:16:49.606Z,13.84
2022-09-24T18:19:18.207Z,13.83
2022-09-24T18:22:08.309Z,13.85
2022-09-24T18:24:37.090Z,13.89
2022-09-24T18:27:07.515Z,13.85
2022-09-24T18:29:35.235Z,13.81
2022-09-24T18:32:04.641Z,13.82
2022-09-24T18:34:34.364Z,13.78
2022-09-24T18:37:01.857Z,13.73
2022-09-24T18:39:29.731Z,13.69
2022-09-24T18:41:57.316Z,13.77
2022-09-24T18:44:24.122Z,13.67
2022-09-24T18:46:52.610Z,13.67
2022-09-24T18:49:19.696Z,13.75
2022-09-24T18:51:47.671Z,13.75
2022-09-24T18:54:18.631Z,13.71
2022-09-24T18:56:50.698Z,13.81
2022-09-24T18:59:38.760Z,13.66
2022-09-24T19:02:22.022Z,13.72
2022-09-24T19:04:51.261Z,13.77
2022-09-24T19:07:19.080Z,13.71
2022-09-24T19:09:46.882Z,13.67
2022-09-24T19:12:19.461Z,13.76
2022-09-24T19:14:47.094Z,13.73
2022-09-24T19:17:16.260Z,13.65
2022-09-24T19:19:52.111Z,13.71
2022-09-24T19:22:20.359Z,13.67
2022-09-24T19:24:49.720Z,13.58
2022-09-24T19:27:17.438Z,13.65
2022-09-24T19:29:45.594Z,13.64
2022-09-24T19:32:15.447Z,13.55
2022-09-24T19:34:43.334Z,13.65
2022-09-24T19:37:11.729Z,13.56
2022-09-24T19:39:42.514Z,13.54
2022-09-24T19:42:10.630Z,13.43
2022-09-24T19:44:40.202Z,13.42
2022-09-24T19:47:10.930Z,13.40
2022-09-24T19:49:39.715Z,13.39
2022-09-24T19:52:07.612Z,13.38
2022-09-24T19:54:35.077Z,13.36
2022-09-24T19:57:02.770Z,13.36
2022-09-24T19:59:32.349Z,13.35
2022-09-24T20:02:00.109Z,13.42
2022-09-24T20:04:28.382Z,13.36
2022-09-24T20:06:56.774Z,13.45
2022-09-24T20:09:24.509Z,13.43
2022-09-24T20:11:52.487Z,13.41
2022-09-24T20:14:21.238Z,13.40
2022-09-24T20:16:48.873Z,13.49
2022-09-24T20:19:17.128Z,13.56
2022-09-24T20:21:44.070Z,13.59
2022-09-24T20:24:17.199Z,13.68
2022-09-24T20:27:04.239Z,13.70
2022-09-24T20:29:32.980Z,13.74
2022-09-24T20:32:00.978Z,13.75
2022-09-24T20:34:33.704Z,13.60
2022-09-24T20:37:03.205Z,13.58
2022-09-24T20:39:32.271Z,13.48
2022-09-24T20:42:06.371Z,13.49
2022-09-24T20:44:35.697Z,13.43
2022-09-24T20:47:04.874Z,13.43
2022-09-24T20:49:33.830Z,13.49
2022-09-24T20:52:03.406Z,13.51
2022-09-24T20:54:34.091Z,13.41
2022-09-24T20:57:03.956Z,13.39
2022-09-24T20:59:32.016Z,13.32
2022-09-24T21:02:04.239Z,13.31
2022-09-24T21:04:40.640Z,13.29
2022-09-24T21:07:10.124Z,13.23
2022-09-24T21:09:38.043Z,13.17
2022-09-24T21:12:08.361Z,13.21
2022-09-24T21:14:38.837Z,13.20
2022-09-24T21:17:08.833Z,13.19
2022-09-24T21:19:38.016Z,13.19
2022-09-24T21:22:08.045Z,13.17
2022-09-24T21:24:38.202Z,13.13
2022-09-24T21:27:07.678Z,13.14
2022-09-24T21:29:35.574Z,13.15
2022-09-24T21:32:03.465Z,13.16
2022-09-24T21:34:31.281Z,13.15
2022-09-24T21:36:58.631Z,13.14
2022-09-24T21:39:29.280Z,13.14
2022-09-24T21:41:59.648Z,13.20
2022-09-24T21:44:31.278Z,13.17
2022-09-24T21:46:59.542Z,13.18
2022-09-24T21:49:27.476Z,13.24
2022-09-24T21:51:57.136Z,13.30
2022-09-24T21:54:24.313Z,13.30
2022-09-24T21:56:54.579Z,13.34
2022-09-24T21:59:40.393Z,13.34
2022-09-24T22:02:10.409Z,13.40
2022-09-24T22:04:38.655Z,13.40
2022-09-24T22:07:07.551Z,13.29
2022-09-24T22:09:35.387Z,13.31
2022-09-24T22:12:04.865Z,13.39
2022-09-24T22:14:35.260Z,13.36
2022-09-24T22:17:04.620Z,13.38
2022-09-24T22:19:33.107Z,13.41
2022-09-24T22:22:00.809Z,13.39
2022-09-24T22:24:28.769Z,13.36
2022-09-24T22:26:57.823Z,13.39
2022-09-24T22:29:25.257Z,13.38
2022-09-24T22:31:53.320Z,13.31
2022-09-24T22:34:39.236Z,13.24
2022-09-24T22:37:07.715Z,13.20
2022-09-24T22:39:36.050Z,13.28
2022-09-24T22:42:03.532Z,13.26
2022-09-24T22:44:32.274Z,13.20
2022-09-24T22:46:59.064Z,13.23
2022-09-24T22:49:27.203Z,13.20
2022-09-24T22:51:54.861Z,13.16
2022-09-24T22:54:21.877Z,13.20
2022-09-24T22:56:49.573Z,13.15
2022-09-24T22:59:17.821Z,13.16
2022-09-24T23:01:45.819Z,13.15
2022-09-24T23:04:15.152Z,13.08
2022-09-24T23:06:43.862Z,13.04
2022-09-24T23:09:11.669Z,13.03
2022-09-24T23:11:39.565Z,13.04
2022-09-24T23:14:12.192Z,13.09
2022-09-24T23:16:40.119Z,13.14
2022-09-24T23:19:12.986Z,13.13
2022-09-24T23:21:40.831Z,13.05
2022-09-24T23:24:14.125Z,13.00
2022-09-24T23:26:41.940Z,12.98
2022-09-24T23:29:10.706Z,12.97
2022-09-24T23:31:37.645Z,12.96
2022-09-24T23:34:07.709Z,12.96
2022-09-24T23:36:36.648Z,12.99
2022-09-24T23:39:04.780Z,13.04
2022-09-24T23:41:32.485Z,13.07
2022-09-24T23:44:00.372Z,13.10
2022-09-24T23:46:27.916Z,13.04
2022-09-24T23:48:56.541Z,12.97
2022-09-24T23:51:23.450Z,12.93
2022-09-24T23:53:50.847Z,12.91
2022-09-24T23:56:19.641Z,12.87
2022-09-24T23:58:47.132Z,12.88
